createdAt,value
2018-04-01T00:00:58.964Z,5.60
2018-04-01T00:03:26.055Z,5.50
2018-04-01T00:05:53.136Z,5.50
2018-04-01T00:08:20.215Z,5.50
2018-04-01T00:10:47.353Z,5.50
2018-04-01T00:13:15.296Z,5.50
2018-04-01T00:15:42.686Z,5.50
2018-04-01T00:18:10.651Z,5.40
2018-04-01T00:20:37.771Z,5.40
2018-04-01T00:23:04.928Z,5.40
2018-04-01T00:25:32.076Z,5.40
2018-04-01T00:27:59.191Z,5.40
2018-04-01T00:30:26.337Z,5.40
2018-04-01T00:32:53.529Z,5.40
2018-04-01T00:35:20.644Z,5.40
2018-04-01T00:37:47.779Z,5.50
2018-04-01T00:40:14.921Z,5.50
2018-04-01T00:42:42.036Z,5.60
2018-04-01T00:45:09.175Z,5.60
2018-04-01T00:47:36.299Z,5.60
2018-04-01T00:50:03.432Z,5.60
2018-04-01T00:52:30.560Z,5.60
2018-04-01T00:54:58.422Z,5.50
2018-04-01T00:57:25.578Z,5.50
2018-04-01T00:59:52.711Z,5.50
2018-04-01T01:02:19.844Z,5.60
2018-04-01T01:04:46.954Z,5.60
2018-04-01T01:07:16.196Z,5.50
2018-04-01T01:09:43.347Z,5.50
2018-04-01T01:12:10.442Z,5.50
2018-04-01T01:14:37.571Z,5.50
2018-04-01T01:17:05.455Z,5.50
2018-04-01T01:19:32.596Z,5.50
2018-04-01T01:21:59.734Z,5.50
2018-04-01T01:24:27.626Z,5.50
2018-04-01T01:26:54.789Z,5.40
2018-04-01T01:29:21.942Z,5.40
2018-04-01T01:31:50.855Z,5.40
2018-04-01T01:34:17.969Z,5.40
2018-04-01T01:36:45.080Z,5.40
2018-04-01T01:39:12.965Z,5.40
2018-04-01T01:41:40.109Z,5.40
2018-04-01T01:44:11.766Z,5.40
2018-04-01T01:46:38.899Z,5.40
2018-04-01T01:49:06.029Z,5.50
2018-04-01T01:51:35.206Z,5.50
2018-04-01T01:54:02.331Z,5.50
2018-04-01T01:56:29.455Z,5.50
2018-04-01T01:58:56.598Z,5.50
2018-04-01T02:01:23.715Z,5.50
2018-04-01T02:03:50.840Z,5.50
2018-04-01T02:06:18.033Z,5.50
2018-04-01T02:08:45.181Z,5.40
2018-04-01T02:11:12.318Z,5.50
2018-04-01T02:13:39.797Z,5.50
2018-04-01T02:16:07.688Z,5.50
2018-04-01T02:18:34.794Z,5.50
2018-04-01T02:21:01.918Z,5.60
2018-04-01T02:23:29.022Z,5.60
2018-04-01T02:25:56.960Z,5.60
2018-04-01T02:28:24.039Z,5.60
2018-04-01T02:30:51.167Z,5.60
2018-04-01T02:33:18.304Z,5.60
2018-04-01T02:35:58.507Z,5.60
2018-04-01T02:38:25.675Z,5.60
2018-04-01T02:40:52.770Z,5.50
2018-04-01T02:43:19.872Z,5.50
2018-04-01T02:45:46.977Z,5.50
2018-04-01T02:48:14.896Z,5.50
2018-04-01T02:50:42.022Z,5.40
2018-04-01T02:53:09.125Z,5.40
2018-04-01T02:55:36.258Z,5.40
2018-04-01T02:58:03.379Z,5.40
2018-04-01T03:00:30.479Z,5.30
2018-04-01T03:02:57.605Z,5.30
2018-04-01T03:05:24.715Z,5.40
2018-04-01T03:07:51.851Z,5.30
2018-04-01T03:10:18.986Z,5.40
2018-04-01T03:12:47.237Z,5.40
2018-04-01T03:15:14.340Z,5.40
2018-04-01T03:17:41.463Z,5.50
2018-04-01T03:20:12.829Z,5.50
2018-04-01T03:22:40.025Z,5.50
2018-04-01T03:25:07.166Z,5.50
2018-04-01T03:27:34.668Z,5.50
2018-04-01T03:30:01.786Z,5.50
2018-04-01T03:32:41.450Z,5.50
2018-04-01T03:35:08.581Z,5.50
2018-04-01T03:37:35.701Z,5.40
2018-04-01T03:40:03.841Z,5.50
2018-04-01T03:42:31.771Z,5.40
2018-04-01T03:44:58.879Z,5.40
2018-04-01T03:47:25.995Z,5.50
2018-04-01T03:49:53.151Z,5.50
2018-04-01T03:52:21.120Z,5.50
2018-04-01T03:54:49.020Z,5.40
2018-04-01T03:57:18.219Z,5.30
2018-04-01T03:59:45.386Z,5.30
2018-04-01T04:02:12.502Z,5.30
2018-04-01T04:04:39.592Z,5.30
2018-04-01T04:07:06.684Z,5.30
2018-04-01T04:09:33.797Z,5.30
2018-04-01T04:12:00.911Z,5.40
2018-04-01T04:14:28.086Z,5.40
2018-04-01T04:16:55.195Z,5.40
2018-04-01T04:25:09.990Z,5.40
2018-04-01T04:27:37.594Z,5.50
2018-04-01T04:30:05.695Z,5.40
2018-04-01T04:32:32.789Z,5.40
2018-04-01T04:34:59.911Z,5.40
2018-04-01T04:37:27.011Z,5.50
2018-04-01T04:39:54.120Z,5.50
2018-04-01T04:42:21.249Z,5.50
2018-04-01T04:45:07.967Z,5.40
2018-04-01T04:47:43.735Z,5.50
2018-04-01T04:50:10.843Z,5.50
2018-04-01T04:52:47.007Z,5.40
2018-04-01T04:55:14.113Z,5.40
2018-04-01T04:57:41.235Z,5.40
2018-04-01T05:06:12.543Z,5.30
2018-04-01T05:08:58.664Z,5.30
2018-04-01T05:11:25.766Z,5.30
2018-04-01T05:13:53.810Z,5.30
2018-04-01T05:16:31.934Z,5.30
2018-04-01T05:18:59.036Z,5.30
2018-04-01T05:21:26.178Z,5.30
2018-04-01T05:23:53.259Z,5.20
2018-04-01T05:26:20.705Z,5.20
2018-04-01T05:29:06.216Z,5.10
2018-04-01T05:34:37.413Z,5.10
2018-04-01T05:37:04.531Z,5.20
2018-04-01T05:39:42.925Z,4.90
2018-04-01T05:48:13.476Z,4.70
2018-04-01T05:50:40.587Z,4.70
2018-04-01T05:53:07.703Z,4.70
2018-04-01T05:55:35.590Z,4.60
2018-04-01T05:58:02.684Z,4.60
2018-04-01T06:00:29.790Z,4.70
2018-04-01T06:02:57.658Z,4.70
2018-04-01T06:05:24.733Z,4.80
2018-04-01T06:07:51.849Z,4.70
2018-04-01T06:27:50.844Z,5.20
2018-04-01T06:33:11.303Z,5.30
2018-04-01T06:41:29.443Z,5.50
2018-04-01T06:43:56.535Z,5.50
2018-04-01T06:46:23.616Z,5.60
2018-04-01T06:48:51.516Z,5.60
2018-04-01T06:51:18.659Z,5.60
2018-04-01T06:53:45.727Z,5.80
2018-04-01T06:59:13.548Z,5.80
2018-04-01T07:01:40.643Z,5.70
2018-04-01T07:04:08.534Z,5.70
2018-04-01T07:06:35.695Z,5.60
2018-04-01T07:09:02.794Z,5.60
2018-04-01T07:11:29.898Z,5.70
2018-04-01T07:13:57.038Z,5.50
2018-04-01T07:16:28.775Z,5.50
2018-04-01T07:18:55.868Z,5.40
2018-04-01T07:21:22.984Z,5.20
2018-04-01T07:23:52.181Z,5.00
2018-04-01T07:26:19.965Z,4.80
2018-04-01T07:28:47.013Z,4.80
2018-04-01T07:31:14.195Z,4.90
2018-04-01T07:33:42.056Z,5.00
2018-04-01T07:36:09.086Z,4.90
2018-04-01T07:38:36.140Z,5.00
2018-04-01T07:41:03.162Z,5.10
2018-04-01T07:43:30.218Z,5.10
2018-04-01T07:45:57.271Z,5.20
2018-04-01T07:48:24.302Z,5.20
2018-04-01T07:50:51.350Z,5.30
2018-04-01T07:53:18.405Z,5.30
2018-04-01T07:55:45.431Z,5.50
2018-04-01T07:58:12.479Z,5.60
2018-04-01T08:00:39.620Z,5.90
2018-04-01T08:03:06.751Z,5.80
2018-04-01T08:05:34.826Z,6.00
2018-04-01T08:08:02.114Z,6.00
2018-04-01T08:10:30.216Z,6.00
2018-04-01T08:12:58.077Z,6.00
2018-04-01T08:15:28.625Z,6.00
2018-04-01T08:17:55.738Z,6.20
2018-04-01T08:20:23.768Z,6.30
2018-04-01T08:22:50.914Z,6.50
2018-04-01T08:25:18.952Z,6.50
2018-04-01T08:27:46.059Z,6.60
2018-04-01T08:30:13.155Z,6.30
2018-04-01T08:32:41.037Z,5.90
2018-04-01T08:35:12.077Z,6.00
2018-04-01T08:37:39.219Z,6.00
2018-04-01T08:40:07.163Z,5.90
2018-04-01T08:42:34.275Z,5.90
2018-04-01T08:45:01.384Z,6.00
2018-04-01T08:47:29.283Z,6.10
2018-04-01T08:49:56.354Z,6.10
2018-04-01T08:52:23.456Z,6.20
2018-04-01T08:54:51.600Z,6.30
2018-04-01T08:57:18.741Z,6.50
2018-04-01T08:59:45.838Z,6.70
2018-04-01T09:02:12.938Z,6.60
2018-04-01T09:04:40.072Z,6.80
2018-04-01T09:07:07.167Z,6.80
2018-04-01T09:09:34.267Z,6.50
2018-04-01T09:12:01.407Z,6.60
2018-04-01T09:14:28.495Z,6.70
2018-04-01T09:16:55.688Z,6.40
2018-04-01T09:19:23.542Z,6.10
2018-04-01T09:21:50.686Z,6.10
2018-04-01T09:24:17.831Z,5.70
2018-04-01T09:26:45.703Z,5.70
2018-04-01T09:29:12.786Z,5.70
2018-04-01T09:31:40.887Z,5.60
2018-04-01T09:34:07.974Z,5.40
2018-04-01T09:39:28.350Z,5.50
2018-04-01T09:41:55.986Z,5.40
2018-04-01T09:44:23.091Z,5.10
2018-04-01T09:46:50.226Z,5.00
2018-04-01T09:49:18.091Z,4.70
2018-04-01T09:51:47.951Z,4.60
2018-04-01T09:54:15.055Z,4.60
2018-04-01T09:56:42.129Z,4.90
2018-04-01T09:59:09.220Z,5.00
2018-04-01T10:01:50.381Z,5.40
2018-04-01T10:04:23.806Z,5.50
2018-04-01T10:06:51.414Z,5.90
2018-04-01T10:09:19.055Z,5.90
2018-04-01T10:11:47.418Z,5.80
2018-04-01T10:14:15.836Z,6.40
2018-04-01T10:16:43.438Z,6.30
2018-04-01T10:19:12.047Z,7.00
2018-04-01T10:21:40.395Z,9.00
2018-04-01T10:24:08.868Z,8.90
2018-04-01T10:26:37.377Z,9.40
2018-04-01T10:29:05.780Z,7.70
2018-04-01T10:34:28.496Z,7.30
2018-04-01T10:36:56.078Z,7.30
2018-04-01T10:39:23.694Z,8.10
2018-04-01T10:41:51.328Z,8.30
2018-04-01T10:44:19.695Z,8.30
2018-04-01T10:46:54.366Z,8.00
2018-04-01T10:49:21.978Z,8.00
2018-04-01T10:51:51.336Z,8.00
2018-04-01T10:54:18.450Z,8.00
2018-04-01T10:56:50.961Z,8.40
2018-04-01T10:59:18.080Z,8.60
2018-04-01T11:01:47.200Z,8.40
2018-04-01T11:04:14.315Z,8.20
2018-04-01T11:06:41.434Z,8.30
2018-04-01T11:09:08.529Z,8.10
2018-04-01T11:23:19.634Z,7.60
2018-04-01T11:25:46.728Z,7.70
2018-04-01T11:28:13.855Z,7.40
2018-04-01T11:30:58.130Z,7.10
2018-04-01T11:33:25.235Z,6.70
2018-04-01T11:35:53.134Z,5.40
2018-04-01T11:38:20.273Z,5.40
2018-04-01T11:43:52.696Z,5.30
2018-04-01T11:46:19.779Z,5.40
2018-04-01T11:48:46.903Z,5.30
2018-04-01T11:51:14.025Z,5.40
2018-04-01T11:59:36.691Z,6.40
2018-04-01T12:02:04.543Z,7.10
2018-04-01T12:04:31.624Z,7.10
2018-04-01T12:06:58.790Z,6.50
2018-04-01T12:09:25.952Z,6.50
2018-04-01T12:11:53.107Z,6.80
2018-04-01T12:14:20.251Z,7.10
2018-04-01T12:16:47.347Z,7.00
2018-04-01T12:19:14.472Z,7.20
2018-04-01T12:21:41.644Z,7.20
2018-04-01T12:24:10.550Z,7.50
2018-04-01T12:26:37.673Z,7.50
2018-04-01T12:29:04.786Z,7.10
2018-04-01T12:31:31.915Z,6.70
2018-04-01T12:33:59.031Z,6.70
2018-04-01T12:36:26.900Z,6.70
2018-04-01T12:38:54.059Z,6.70
2018-04-01T12:41:22.953Z,6.60
2018-04-01T12:43:50.100Z,6.60
2018-04-01T12:46:17.203Z,6.80
2018-04-01T12:48:58.424Z,7.00
2018-04-01T12:51:25.563Z,6.80
2018-04-01T12:53:53.437Z,5.10
2018-04-01T12:56:20.566Z,5.10
2018-04-01T12:58:48.866Z,5.40
2018-04-01T13:01:15.989Z,5.90
2018-04-01T13:03:43.115Z,6.80
2018-04-01T13:06:10.187Z,7.30
2018-04-01T13:08:49.102Z,7.70
2018-04-01T13:11:16.217Z,8.40
2018-04-01T13:13:44.080Z,8.40
2018-04-01T13:16:11.203Z,8.40
2018-04-01T13:21:35.063Z,7.90
2018-04-01T13:24:02.192Z,7.40
2018-04-01T13:26:29.286Z,7.40
2018-04-01T13:28:57.160Z,7.20
2018-04-01T13:31:24.314Z,7.20
2018-04-01T13:33:51.514Z,7.40
2018-04-01T13:36:18.627Z,7.70
2018-04-01T13:38:45.708Z,7.80
2018-04-01T13:41:12.872Z,7.80
2018-04-01T13:43:39.987Z,7.70
2018-04-01T13:46:07.135Z,7.80
2018-04-01T13:48:34.259Z,8.00
2018-04-01T13:51:02.134Z,7.80
2018-04-01T13:53:29.216Z,7.80
2018-04-01T13:56:05.199Z,8.00
2018-04-01T13:58:32.335Z,8.10
2018-04-01T14:04:16.168Z,8.20
2018-04-01T14:06:44.031Z,8.60
2018-04-01T14:09:18.477Z,8.60
2018-04-01T14:17:47.759Z,7.90
2018-04-01T14:20:15.677Z,7.90
2018-04-01T14:22:42.811Z,7.90
2018-04-01T14:25:09.937Z,7.90
2018-04-01T14:27:37.063Z,7.90
2018-04-01T14:30:04.913Z,8.10
2018-04-01T14:32:32.808Z,8.20
2018-04-01T14:35:00.705Z,8.00
2018-04-01T14:37:27.815Z,8.00
2018-04-01T14:39:55.695Z,7.90
2018-04-01T14:42:22.811Z,7.90
2018-04-01T14:44:51.528Z,7.60
2018-04-01T14:47:18.660Z,7.60
2018-04-01T14:49:45.788Z,7.40
2018-04-01T14:52:23.417Z,7.10
2018-04-01T14:55:27.796Z,7.00
2018-04-01T14:57:54.973Z,6.90
2018-04-01T15:00:22.101Z,6.90
2018-04-01T15:02:49.253Z,6.70
2018-04-01T15:05:16.371Z,6.90
2018-04-01T15:07:43.524Z,7.20
2018-04-01T15:10:10.663Z,7.40
2018-04-01T15:12:37.743Z,7.40
2018-04-01T15:15:08.144Z,7.40
2018-04-01T15:17:38.621Z,7.50
2018-04-01T15:20:05.743Z,7.40
2018-04-01T15:22:32.909Z,7.20
2018-04-01T15:25:00.028Z,7.10
2018-04-01T15:27:27.187Z,7.00
2018-04-01T15:29:54.299Z,7.00
2018-04-01T15:32:22.348Z,6.80
2018-04-01T15:34:50.198Z,6.90
2018-04-01T15:37:17.332Z,6.90
2018-04-01T15:39:44.446Z,7.00
2018-04-01T15:42:11.556Z,6.90
2018-04-01T15:44:48.619Z,6.70
2018-04-01T15:47:35.798Z,6.70
2018-04-01T15:50:09.988Z,6.60
2018-04-01T15:52:38.876Z,6.50
2018-04-01T15:55:11.283Z,6.50
2018-04-01T15:57:38.419Z,6.40
2018-04-01T16:00:05.522Z,6.40
2018-04-01T16:02:32.608Z,6.40
2018-04-01T16:04:59.729Z,6.40
2018-04-01T16:07:26.861Z,6.40
2018-04-01T16:09:53.979Z,6.40
2018-04-01T16:12:21.100Z,6.50
2018-04-01T16:14:48.247Z,6.50
2018-04-01T16:17:15.387Z,6.50
2018-04-01T16:19:43.283Z,6.40
2018-04-01T16:22:10.433Z,6.30
2018-04-01T16:24:37.581Z,6.30
2018-04-01T16:27:04.688Z,6.30
2018-04-01T16:29:31.777Z,6.20
2018-04-01T16:31:58.911Z,6.20
2018-04-01T16:34:26.044Z,6.10
2018-04-01T16:36:53.957Z,6.20
2018-04-01T16:39:21.100Z,6.20
2018-04-01T16:41:48.215Z,6.10
2018-04-01T16:44:16.123Z,6.10
2018-04-01T16:46:43.236Z,6.10
2018-04-01T16:49:11.114Z,6.20
2018-04-01T16:51:38.224Z,6.20
2018-04-01T16:54:05.311Z,6.10
2018-04-01T16:56:32.430Z,6.10
2018-04-01T16:58:59.536Z,6.10
2018-04-01T17:01:26.626Z,6.10
2018-04-01T17:03:53.806Z,6.10
2018-04-01T17:06:20.917Z,6.10
2018-04-01T17:08:48.043Z,6.10
2018-04-01T17:11:15.669Z,6.10
2018-04-01T17:13:42.779Z,6.00
2018-04-01T17:16:09.902Z,6.00
2018-04-01T17:18:37.031Z,6.00
2018-04-01T17:21:04.134Z,5.90
2018-04-01T17:23:31.261Z,5.90
2018-04-01T17:25:58.344Z,6.00
2018-04-01T17:28:26.245Z,5.90
2018-04-01T17:30:53.358Z,5.90
2018-04-01T17:33:21.229Z,5.60
2018-04-01T17:35:49.192Z,5.60
2018-04-01T17:38:17.061Z,5.50
2018-04-01T17:40:44.989Z,5.50
2018-04-01T17:43:12.122Z,5.50
2018-04-01T17:45:39.247Z,5.50
2018-04-01T17:48:06.337Z,5.50
2018-04-01T17:53:29.354Z,5.50
2018-04-01T17:55:57.310Z,5.50
2018-04-01T17:58:26.198Z,5.40
2018-04-01T18:00:53.344Z,5.40
2018-04-01T18:06:16.049Z,5.40
2018-04-01T18:08:43.219Z,5.40
2018-04-01T18:11:10.448Z,5.30
2018-04-01T18:13:37.652Z,5.30
2018-04-01T18:16:04.753Z,5.30
2018-04-01T18:18:31.909Z,5.30
2018-04-01T18:20:59.073Z,5.30
2018-04-01T18:23:26.261Z,5.30
2018-04-01T18:25:53.490Z,5.30
2018-04-01T18:28:20.615Z,5.20
2018-04-01T18:30:47.789Z,5.20
2018-04-01T18:33:14.958Z,5.20
2018-04-01T18:35:42.064Z,5.20
2018-04-01T18:38:09.208Z,5.20
2018-04-01T18:40:36.349Z,5.20
2018-04-01T18:43:03.565Z,5.20
2018-04-01T18:45:31.460Z,5.20
2018-04-01T18:47:58.616Z,5.20
2018-04-01T18:50:25.740Z,5.30
2018-04-01T18:52:53.629Z,5.30
2018-04-01T18:55:21.141Z,5.20
2018-04-01T18:57:48.276Z,5.30
2018-04-01T19:00:15.411Z,5.20
2018-04-01T19:02:42.655Z,5.30
2018-04-01T19:05:09.823Z,5.20
2018-04-01T19:07:38.980Z,5.30
2018-04-01T19:10:06.045Z,5.20
2018-04-01T19:12:33.251Z,5.20
2018-04-01T19:15:01.662Z,5.20
2018-04-01T19:17:29.554Z,5.20
2018-04-01T19:19:57.161Z,5.20
2018-04-01T19:22:24.856Z,5.20
2018-04-01T19:24:52.465Z,5.20
2018-04-01T19:27:20.169Z,5.20
2018-04-01T19:29:47.843Z,5.10
2018-04-01T19:32:15.543Z,5.10
2018-04-01T19:34:43.252Z,5.10
2018-04-01T19:37:10.877Z,5.10
2018-04-01T19:39:38.523Z,5.00
2018-04-01T19:42:06.248Z,4.90
2018-04-01T19:44:33.911Z,4.90
2018-04-01T19:47:01.529Z,4.90
2018-04-01T19:49:29.169Z,4.90
2018-04-01T19:51:56.928Z,4.80
2018-04-01T19:54:24.709Z,4.80
2018-04-01T19:56:53.101Z,4.70
2018-04-01T19:59:21.614Z,4.70
2018-04-01T20:01:49.311Z,4.70
2018-04-01T20:04:17.841Z,4.60
2018-04-01T20:06:46.208Z,4.60
2018-04-01T20:09:14.619Z,4.60
2018-04-01T20:11:42.237Z,4.60
2018-04-01T20:14:10.760Z,4.60
2018-04-01T20:16:38.438Z,4.60
2018-04-01T20:19:06.574Z,4.60
2018-04-01T20:21:34.159Z,4.60
2018-04-01T20:24:01.775Z,4.60
2018-04-01T20:26:29.399Z,4.60
2018-04-01T20:28:57.082Z,4.60
2018-04-01T20:31:24.719Z,4.50
2018-04-01T20:33:52.383Z,4.50
2018-04-01T20:36:20.022Z,4.60
2018-04-01T20:38:47.695Z,4.60
2018-04-01T20:41:15.289Z,4.60
2018-04-01T20:43:43.662Z,4.60
2018-04-01T20:46:11.385Z,4.60
2018-04-01T20:48:39.029Z,4.60
2018-04-01T20:51:06.641Z,4.60
2018-04-01T20:53:34.276Z,4.60
2018-04-01T20:56:01.925Z,4.60
2018-04-01T20:58:29.536Z,4.60
2018-04-01T21:00:57.138Z,4.60
2018-04-01T21:03:25.522Z,4.50
2018-04-01T21:05:53.227Z,4.50
2018-04-01T21:08:20.843Z,4.50
2018-04-01T21:10:49.169Z,4.50
2018-04-01T21:13:18.603Z,4.50
2018-04-01T21:15:47.241Z,4.60
2018-04-01T21:18:14.948Z,4.50
2018-04-01T21:20:42.725Z,4.50
2018-04-01T21:23:10.503Z,4.50
2018-04-01T21:25:38.139Z,4.50
2018-04-01T21:28:05.742Z,4.50
2018-04-01T21:30:33.387Z,4.50
2018-04-01T21:33:21.343Z,4.30
2018-04-01T21:35:49.024Z,4.30
2018-04-01T21:38:17.224Z,4.30
2018-04-01T21:40:44.848Z,4.20
2018-04-01T21:43:12.583Z,4.10
2018-04-01T21:45:40.215Z,4.10
2018-04-01T21:48:07.844Z,4.10
2018-04-01T21:50:35.496Z,4.20
2018-04-01T21:53:03.138Z,4.10
2018-04-01T21:55:30.824Z,4.10
2018-04-01T21:57:58.475Z,4.10
2018-04-01T22:00:26.156Z,4.10
2018-04-01T22:02:53.834Z,4.10
2018-04-01T22:05:22.473Z,4.10
2018-04-01T22:07:50.268Z,4.00
2018-04-01T22:10:17.965Z,4.00
2018-04-01T22:12:45.661Z,4.00
2018-04-01T22:15:13.306Z,4.10
2018-04-01T22:17:40.948Z,4.20
2018-04-01T22:20:09.397Z,4.20
2018-04-01T22:22:49.136Z,4.10
2018-04-01T22:25:16.799Z,4.10
2018-04-01T22:27:44.448Z,4.00
2018-04-01T22:30:12.058Z,3.90
2018-04-01T22:32:40.432Z,3.80
2018-04-01T22:35:08.036Z,3.70
2018-04-01T22:37:35.768Z,3.90
2018-04-01T22:40:04.145Z,4.00
2018-04-01T22:42:31.834Z,4.00
2018-04-01T22:45:00.811Z,3.90
2018-04-01T22:47:28.427Z,3.80
2018-04-01T22:49:56.107Z,3.70
2018-04-01T22:52:23.749Z,3.50
2018-04-01T22:54:51.397Z,3.40
2018-04-01T22:57:18.979Z,3.40
2018-04-01T22:59:46.669Z,3.60
2018-04-01T23:02:14.337Z,3.80
2018-04-01T23:04:42.051Z,3.90
2018-04-01T23:07:09.692Z,3.80
2018-04-01T23:09:37.332Z,3.70
2018-04-01T23:12:04.962Z,3.50
2018-04-01T23:14:32.628Z,3.40
2018-04-01T23:17:00.218Z,3.30
2018-04-01T23:19:27.823Z,3.20
2018-04-01T23:21:55.567Z,3.10
2018-04-01T23:24:23.176Z,3.10
2018-04-01T23:26:50.773Z,3.00
2018-04-01T23:29:18.369Z,3.00
2018-04-01T23:31:46.016Z,3.00
2018-04-01T23:34:13.607Z,3.10
2018-04-01T23:36:41.217Z,3.10
2018-04-01T23:39:08.857Z,3.00
2018-04-01T23:41:36.519Z,3.00
2018-04-01T23:44:04.882Z,2.60
2018-04-01T23:46:33.423Z,2.50
2018-04-01T23:49:00.996Z,2.40
2018-04-01T23:51:28.622Z,2.30
2018-04-01T23:53:56.227Z,2.30
2018-04-01T23:56:23.902Z,2.20
2018-04-01T23:58:51.519Z,2.10
